Time;durP1;ratioP1;P1;durP2;ratioP2;P2;SDS_P1;SDS_P2;PMS_P1;PMS_P2;Temp;Humidity;BMP_temperature;BMP_pressure;BME280_temperature;BME280_humidity;BME280_pressure;Samples;Min_cycle;Max_cycle;Signal;HPM_P1;HPM_P2
2024/03/11 00:01:47;;;;;;;24.52;12.50;;;;;;;;;;5078485;28;20027;-66
2024/03/11 00:04:15;;;;;;;27.85;12.38;;;;;;;;;;5093818;28;20039;-66
2024/03/11 00:06:44;;;;;;;29.98;11.20;;;;;;;;;;5091376;28;20024;-66
2024/03/11 00:09:28;;;;;;;27.20;12.52;;;;;;;;;;5071038;28;20025;-68
2024/03/11 00:11:58;;;;;;;31.08;11.88;;;;;;;;;;5092144;28;20016;-66
2024/03/11 00:14:33;;;;;;;27.27;12.68;;;;;;;;;;5087658;28;20429;-66
2024/03/11 00:17:02;;;;;;;21.13;11.90;;;;;;;;;;5092294;28;20385;-66
2024/03/11 00:19:28;;;;;;;31.48;12.35;;;;;;;;;;5093826;28;20266;-66
2024/03/11 00:21:58;;;;;;;29.40;11.88;;;;;;;;;;5094368;28;20040;-66
2024/03/11 00:24:25;;;;;;;31.70;13.80;;;;;;;;;;5094328;28;20032;-66
2024/03/11 00:26:52;;;;;;;25.77;12.90;;;;;;;;;;5091711;28;20481;-66
2024/03/11 00:29:18;;;;;;;27.38;12.88;;;;;;;;;;5096775;28;20032;-66
2024/03/11 00:31:45;;;;;;;23.90;10.60;;;;;;;;;;5097950;28;20042;-66
2024/03/11 00:34:12;;;;;;;30.05;12.85;;;;;;;;;;5073384;28;20807;-66
2024/03/11 00:36:38;;;;;;;24.48;10.25;;;;;;;;;;5079239;28;20047;-66
2024/03/11 00:39:05;;;;;;;26.45;13.65;;;;;;;;;;5088899;28;20055;-66
2024/03/11 00:41:32;;;;;;;24.65;11.05;;;;;;;;;;5089815;28;20028;-67
2024/03/11 00:43:59;;;;;;;22.63;10.70;;;;;;;;;;5093052;28;20028;-66
2024/03/11 00:46:25;;;;;;;28.75;11.48;;;;;;;;;;5093612;28;20019;-68
2024/03/11 00:48:52;;;;;;;23.95;9.82;;;;;;;;;;5097499;28;20496;-66
2024/03/11 00:51:21;;;;;;;26.73;12.40;;;;;;;;;;5087583;28;20055;-66
2024/03/11 00:53:47;;;;;;;26.83;12.38;;;;;;;;;;5091543;28;20030;-66
2024/03/11 00:56:13;;;;;;;26.88;11.75;;;;;;;;;;5090914;28;20911;-66
2024/03/11 00:58:39;;;;;;;28.08;11.13;;;;;;;;;;5079293;28;20028;-66
2024/03/11 01:01:06;;;;;;;26.85;11.50;;;;;;;;;;5091321;28;20507;-66
2024/03/11 01:03:33;;;;;;;23.83;10.98;;;;;;;;;;5096752;28;20022;-66
2024/03/11 01:05:59;;;;;;;17.15;10.57;;;;;;;;;;5091900;28;20473;-66
2024/03/11 01:08:29;;;;;;;21.95;12.43;;;;;;;;;;5071903;28;20483;-66
2024/03/11 01:10:56;;;;;;;22.33;9.25;;;;;;;;;;5076865;28;20484;-66
2024/03/11 01:13:22;;;;;;;29.42;12.38;;;;;;;;;;5087903;28;20546;-66
2024/03/11 01:15:49;;;;;;;25.35;10.55;;;;;;;;;;5090600;28;20023;-66
2024/03/11 01:18:16;;;;;;;23.10;10.93;;;;;;;;;;5087035;28;20024;-66
2024/03/11 01:20:43;;;;;;;22.67;12.10;;;;;;;;;;5068764;28;20028;-66
2024/03/11 01:23:09;;;;;;;27.73;10.27;;;;;;;;;;5086345;28;20107;-65
2024/03/11 01:25:36;;;;;;;22.27;9.75;;;;;;;;;;5094847;28;20023;-66
2024/03/11 01:28:10;;;;;;;27.98;11.50;;;;;;;;;;5089668;28;20028;-65
2024/03/11 01:30:37;;;;;;;34.08;12.70;;;;;;;;;;5083554;28;20115;-66
2024/03/11 01:33:04;;;;;;;18.90;10.05;;;;;;;;;;5079938;28;20034;-66
2024/03/11 01:35:31;;;;;;;26.75;10.95;;;;;;;;;;5092690;28;20023;-66
2024/03/11 01:37:57;;;;;;;20.88;11.20;;;;;;;;;;5074544;28;20375;-65
2024/03/11 01:40:27;;;;;;;18.45;9.27;;;;;;;;;;5091316;28;20030;-66
2024/03/11 01:42:54;;;;;;;26.20;11.48;;;;;;;;;;5087728;28;20072;-66
2024/03/11 01:45:22;;;;;;;27.05;10.35;;;;;;;;;;5094898;28;20258;-65
2024/03/11 01:47:48;;;;;;;20.10;9.00;;;;;;;;;;5094600;28;20013;-66
2024/03/11 01:50:16;;;;;;;22.80;10.65;;;;;;;;;;5070832;28;20081;-66
2024/03/11 01:52:51;;;;;;;22.95;11.43;;;;;;;;;;5097822;27;20040;-65
2024/03/11 01:55:18;;;;;;;19.00;9.77;;;;;;;;;;5077025;28;20092;-66
2024/03/11 01:57:47;;;;;;;24.67;11.10;;;;;;;;;;5096773;28;20023;-65
2024/03/11 02:00:13;;;;;;;20.75;10.77;;;;;;;;;;5098986;28;20024;-65
2024/03/11 02:02:39;;;;;;;23.73;12.13;;;;;;;;;;5094208;27;20424;-65
2024/03/11 02:05:13;;;;;;;28.67;9.32;;;;;;;;;;5094713;28;20500;-65
2024/03/11 02:07:40;;;;;;;23.60;9.35;;;;;;;;;;5075913;28;20077;-66
2024/03/11 02:10:13;;;;;;;17.05;9.40;;;;;;;;;;5076355;28;20279;-65
2024/03/11 02:12:40;;;;;;;26.73;9.70;;;;;;;;;;5095518;28;20581;-66
2024/03/11 02:15:10;;;;;;;19.13;10.07;;;;;;;;;;5081931;28;20038;-66
2024/03/11 02:17:38;;;;;;;23.17;9.55;;;;;;;;;;5073798;28;20039;-66
2024/03/11 02:20:08;;;;;;;20.65;9.20;;;;;;;;;;5080818;28;20023;-66
2024/03/11 02:22:34;;;;;;;23.48;9.65;;;;;;;;;;5094083;28;20023;-65
2024/03/11 02:25:00;;;;;;;18.20;8.45;;;;;;;;;;5091552;28;20028;-66
2024/03/11 02:27:27;;;;;;;23.42;10.05;;;;;;;;;;5088166;28;20028;-66
2024/03/11 02:29:53;;;;;;;28.88;8.48;;;;;;;;;;5091395;28;20032;-65
2024/03/11 02:32:22;;;;;;;19.67;9.93;;;;;;;;;;5092080;27;20547;-66
2024/03/11 02:34:49;;;;;;;24.27;10.77;;;;;;;;;;5100755;28;20034;-66
2024/03/11 02:37:16;;;;;;;25.83;9.88;;;;;;;;;;5100524;27;20043;-66
2024/03/11 02:39:42;;;;;;;17.35;9.70;;;;;;;;;;5077142;28;20059;-66
2024/03/11 02:42:09;;;;;;;14.13;8.18;;;;;;;;;;5096400;28;20112;-65
2024/03/11 02:44:36;;;;;;;21.20;8.93;;;;;;;;;;5086670;27;20132;-65
2024/03/11 02:47:03;;;;;;;21.85;8.10;;;;;;;;;;5099142;28;20028;-66
2024/03/11 02:49:29;;;;;;;16.02;7.88;;;;;;;;;;5092596;27;20023;-66
2024/03/11 02:51:55;;;;;;;20.27;8.68;;;;;;;;;;5089483;28;20063;-66
2024/03/11 02:54:23;;;;;;;22.60;10.07;;;;;;;;;;5088702;28;20423;-66
2024/03/11 02:56:49;;;;;;;31.50;9.80;;;;;;;;;;5093414;28;20122;-66
2024/03/11 02:59:18;;;;;;;12.55;8.07;;;;;;;;;;5089052;27;20036;-65
2024/03/11 03:01:45;;;;;;;19.92;8.68;;;;;;;;;;5092165;27;20038;-66
2024/03/11 03:04:11;;;;;;;23.27;9.20;;;;;;;;;;5096115;28;20123;-65
2024/03/11 03:06:37;;;;;;;16.85;7.70;;;;;;;;;;5096786;27;20026;-65
2024/03/11 03:09:03;;;;;;;21.63;8.20;;;;;;;;;;5090549;28;20248;-65
2024/03/11 03:11:29;;;;;;;19.77;8.80;;;;;;;;;;5098125;28;20112;-66
2024/03/11 03:13:55;;;;;;;20.63;10.88;;;;;;;;;;5094345;28;20429;-66
2024/03/11 03:16:21;;;;;;;22.88;9.55;;;;;;;;;;5092282;28;20033;-65
2024/03/11 03:18:48;;;;;;;19.58;8.55;;;;;;;;;;5101588;28;20484;-65
2024/03/11 03:21:14;;;;;;;15.60;8.93;;;;;;;;;;5090127;28;20031;-66
2024/03/11 03:23:41;;;;;;;25.70;9.52;;;;;;;;;;5095266;27;20032;-65
2024/03/11 03:26:07;;;;;;;19.20;8.57;;;;;;;;;;5094800;28;20023;-66
2024/03/11 03:28:34;;;;;;;18.65;8.88;;;;;;;;;;5072657;28;20069;-65
2024/03/11 03:31:00;;;;;;;16.35;8.13;;;;;;;;;;5098850;28;20374;-65
2024/03/11 03:33:27;;;;;;;17.25;8.52;;;;;;;;;;5097539;28;20677;-65
2024/03/11 03:35:54;;;;;;;13.65;7.47;;;;;;;;;;5091194;27;20503;-66
2024/03/11 03:38:20;;;;;;;16.00;8.25;;;;;;;;;;5061442;28;20522;-66
2024/03/11 03:40:46;;;;;;;16.60;8.50;;;;;;;;;;5081117;28;20077;-65
2024/03/11 03:43:12;;;;;;;15.75;8.27;;;;;;;;;;5070824;28;20104;-66
2024/03/11 03:45:38;;;;;;;15.40;8.32;;;;;;;;;;5073317;28;20020;-66
2024/03/11 03:48:06;;;;;;;20.20;9.05;;;;;;;;;;5064573;28;20029;-66
2024/03/11 03:50:32;;;;;;;13.00;8.45;;;;;;;;;;5078503;28;20147;-66
2024/03/11 03:53:00;;;;;;;16.25;8.70;;;;;;;;;;5073018;28;20035;-66
2024/03/11 03:55:26;;;;;;;16.10;8.77;;;;;;;;;;5079076;28;20050;-66
2024/03/11 03:57:53;;;;;;;23.23;9.00;;;;;;;;;;5071185;28;20033;-65
2024/03/11 04:00:20;;;;;;;15.35;7.88;;;;;;;;;;5079980;28;20036;-65
2024/03/11 04:02:50;;;;;;;16.45;8.65;;;;;;;;;;5069606;28;20029;-65
2024/03/11 04:05:16;;;;;;;18.70;9.35;;;;;;;;;;5072945;28;20024;-65
2024/03/11 04:07:43;;;;;;;20.95;9.73;;;;;;;;;;5069310;28;20025;-65
2024/03/11 04:10:13;;;;;;;14.38;7.95;;;;;;;;;;5074223;28;20385;-67
2024/03/11 04:12:44;;;;;;;31.48;9.40;;;;;;;;;;5072244;28;20096;-65
2024/03/11 04:15:14;;;;;;;17.27;8.85;;;;;;;;;;5068554;28;20025;-64
2024/03/11 04:17:41;;;;;;;21.17;9.23;;;;;;;;;;5073209;28;20439;-65
2024/03/11 04:20:14;;;;;;;21.60;8.75;;;;;;;;;;5075787;28;20020;-65
2024/03/11 04:22:53;;;;;;;23.30;9.13;;;;;;;;;;5075869;28;20031;-66
2024/03/11 04:25:23;;;;;;;23.63;9.02;;;;;;;;;;5072604;28;20512;-65
2024/03/11 04:27:53;;;;;;;21.90;10.15;;;;;;;;;;5080409;28;20024;-66
2024/03/11 04:30:19;;;;;;;17.80;8.45;;;;;;;;;;5077089;28;20016;-66
2024/03/11 04:32:52;;;;;;;18.58;9.02;;;;;;;;;;5074419;28;20039;-66
2024/03/11 04:35:24;;;;;;;20.83;7.80;;;;;;;;;;5066186;28;20035;-65
2024/03/11 04:37:50;;;;;;;20.75;8.50;;;;;;;;;;5091388;28;20043;-65
2024/03/11 04:40:17;;;;;;;16.10;8.07;;;;;;;;;;5093310;28;20496;-66
2024/03/11 04:42:43;;;;;;;17.00;9.00;;;;;;;;;;5095090;28;20071;-66
2024/03/11 04:45:09;;;;;;;16.65;8.90;;;;;;;;;;5093106;28;20038;-66
2024/03/11 04:47:37;;;;;;;23.98;8.85;;;;;;;;;;5092801;28;20041;-65
2024/03/11 04:50:03;;;;;;;19.40;9.00;;;;;;;;;;5096226;28;20922;-65
2024/03/11 04:52:30;;;;;;;19.80;9.18;;;;;;;;;;5091330;28;20035;-65
2024/03/11 04:54:56;;;;;;;19.20;8.38;;;;;;;;;;5072581;28;20101;-67
2024/03/11 04:57:22;;;;;;;22.98;8.18;;;;;;;;;;5073606;28;20196;-65
2024/03/11 04:59:49;;;;;;;16.38;8.20;;;;;;;;;;5090220;28;20389;-66
2024/03/11 05:02:16;;;;;;;27.33;8.88;;;;;;;;;;5072934;28;20032;-66
2024/03/11 05:04:42;;;;;;;25.77;8.90;;;;;;;;;;5086976;28;20584;-65
2024/03/11 05:07:08;;;;;;;21.05;8.10;;;;;;;;;;5098996;28;20418;-65
2024/03/11 05:09:34;;;;;;;21.15;8.10;;;;;;;;;;5094941;28;20436;-65
2024/03/11 05:12:01;;;;;;;25.20;9.07;;;;;;;;;;5088985;28;20032;-65
2024/03/11 05:14:28;;;;;;;11.90;8.20;;;;;;;;;;5077322;28;20093;-65
2024/03/11 05:16:55;;;;;;;20.85;9.48;;;;;;;;;;5075985;28;20078;-65
2024/03/11 05:19:21;;;;;;;16.73;7.55;;;;;;;;;;5079802;28;20489;-64
2024/03/11 05:21:47;;;;;;;16.00;8.55;;;;;;;;;;5079287;28;20062;-66
2024/03/11 05:24:14;;;;;;;16.40;8.30;;;;;;;;;;5093352;28;20020;-65
2024/03/11 05:26:40;;;;;;;14.65;8.50;;;;;;;;;;5078051;28;20020;-65
2024/03/11 05:29:06;;;;;;;20.30;8.55;;;;;;;;;;5094337;28;20471;-66
2024/03/11 05:31:33;;;;;;;20.30;7.50;;;;;;;;;;5088071;28;20499;-66
2024/03/11 05:33:59;;;;;;;20.13;8.55;;;;;;;;;;5079259;28;20024;-65
2024/03/11 05:36:25;;;;;;;21.75;7.80;;;;;;;;;;5090182;28;20088;-66
2024/03/11 05:38:51;;;;;;;15.68;8.45;;;;;;;;;;5101541;28;20024;-66
2024/03/11 05:41:17;;;;;;;20.25;8.50;;;;;;;;;;5099696;28;20104;-66
2024/03/11 05:43:43;;;;;;;23.60;7.85;;;;;;;;;;5101499;28;20027;-67
2024/03/11 05:46:09;;;;;;;24.10;9.05;;;;;;;;;;5087735;28;20548;-66
2024/03/11 05:48:38;;;;;;;16.65;8.90;;;;;;;;;;5093912;28;20020;-66
2024/03/11 05:51:05;;;;;;;20.17;9.48;;;;;;;;;;5093070;28;20027;-66
2024/03/11 05:53:34;;;;;;;19.10;8.68;;;;;;;;;;5085987;28;20417;-66
2024/03/11 05:56:01;;;;;;;22.88;9.70;;;;;;;;;;5092868;28;20038;-66
2024/03/11 05:58:28;;;;;;;18.35;8.70;;;;;;;;;;5086311;28;20026;-66
2024/03/11 06:00:56;;;;;;;16.30;8.63;;;;;;;;;;5094294;28;20024;-66
2024/03/11 06:03:22;;;;;;;22.33;8.07;;;;;;;;;;5092169;28;20468;-66
2024/03/11 06:05:49;;;;;;;20.70;8.57;;;;;;;;;;5070096;28;20464;-66
2024/03/11 06:08:18;;;;;;;15.25;7.50;;;;;;;;;;5092717;28;20032;-66
2024/03/11 06:10:44;;;;;;;19.40;8.35;;;;;;;;;;5093320;28;20810;-66
2024/03/11 06:13:11;;;;;;;17.95;8.77;;;;;;;;;;5095711;28;20092;-66
2024/03/11 06:15:37;;;;;;;26.23;9.45;;;;;;;;;;5089934;28;20500;-66
2024/03/11 06:18:06;;;;;;;23.08;8.63;;;;;;;;;;5093250;28;20085;-66
2024/03/11 06:20:33;;;;;;;15.93;8.07;;;;;;;;;;5088188;28;20051;-66
2024/03/11 06:22:59;;;;;;;23.38;9.70;;;;;;;;;;5091351;28;20511;-66
2024/03/11 06:25:25;;;;;;;19.15;8.65;;;;;;;;;;5096373;28;20496;-66
2024/03/11 06:27:52;;;;;;;18.50;8.23;;;;;;;;;;5080152;28;20031;-66
2024/03/11 06:30:18;;;;;;;22.77;9.73;;;;;;;;;;5089563;28;20027;-66
2024/03/11 06:32:51;;;;;;;16.13;8.43;;;;;;;;;;5098696;27;20027;-66
2024/03/11 06:35:17;;;;;;;14.18;7.63;;;;;;;;;;5079434;28;20655;-66
2024/03/11 06:37:45;;;;;;;23.95;9.10;;;;;;;;;;5102587;27;20063;-66
2024/03/11 06:40:16;;;;;;;20.80;9.75;;;;;;;;;;5099530;28;20035;-66
2024/03/11 06:42:42;;;;;;;17.13;9.73;;;;;;;;;;5092235;28;20027;-66
2024/03/11 06:45:09;;;;;;;19.00;8.73;;;;;;;;;;5075956;28;20567;-67
2024/03/11 06:47:35;;;;;;;17.95;8.40;;;;;;;;;;5095132;27;20032;-67
2024/03/11 06:50:01;;;;;;;16.30;8.07;;;;;;;;;;5073396;28;20488;-67
2024/03/11 06:52:27;;;;;;;16.08;8.45;;;;;;;;;;5097114;28;20286;-69
2024/03/11 06:54:55;;;;;;;17.10;8.43;;;;;;;;;;5096335;28;20110;-67
2024/03/11 06:57:21;;;;;;;19.55;9.48;;;;;;;;;;5077790;28;20165;-67
2024/03/11 06:59:47;;;;;;;25.45;9.02;;;;;;;;;;5081212;28;20051;-67
2024/03/11 07:02:14;;;;;;;16.52;9.20;;;;;;;;;;5082437;28;20032;-67
2024/03/11 07:04:40;;;;;;;15.23;8.13;;;;;;;;;;5094741;28;20019;-69
2024/03/11 07:07:06;;;;;;;16.63;7.47;;;;;;;;;;5099145;28;20056;-67
2024/03/11 07:09:34;;;;;;;18.58;9.07;;;;;;;;;;5089699;28;20450;-67
2024/03/11 07:12:00;;;;;;;14.50;8.45;;;;;;;;;;5090468;28;20035;-67
2024/03/11 07:14:27;;;;;;;27.83;9.40;;;;;;;;;;5083947;28;20031;-67
2024/03/11 07:16:53;;;;;;;22.35;8.32;;;;;;;;;;5093052;28;20039;-67
2024/03/11 07:19:25;;;;;;;20.83;9.07;;;;;;;;;;5090920;28;20027;-66
2024/03/11 07:21:51;;;;;;;15.75;8.27;;;;;;;;;;5093060;28;20519;-67
2024/03/11 07:24:19;;;;;;;21.45;10.10;;;;;;;;;;5078957;28;20028;-67
2024/03/11 07:26:45;;;;;;;17.27;8.73;;;;;;;;;;5073417;28;20031;-67
2024/03/11 07:29:12;;;;;;;22.55;9.75;;;;;;;;;;5094156;28;20035;-67
2024/03/11 07:31:41;;;;;;;19.17;8.88;;;;;;;;;;5096479;28;20031;-67
2024/03/11 07:34:07;;;;;;;21.20;9.65;;;;;;;;;;5079734;28;20397;-67
2024/03/11 07:36:35;;;;;;;18.92;8.45;;;;;;;;;;5071676;28;20087;-67
2024/03/11 07:39:02;;;;;;;16.20;7.85;;;;;;;;;;5093548;28;20068;-67
2024/03/11 07:41:28;;;;;;;23.00;9.43;;;;;;;;;;5090555;28;20453;-67
2024/03/11 07:43:55;;;;;;;18.85;9.68;;;;;;;;;;5093445;27;20023;-67
2024/03/11 07:46:21;;;;;;;26.63;9.45;;;;;;;;;;5097422;28;20366;-67
2024/03/11 07:48:48;;;;;;;22.88;8.80;;;;;;;;;;5097834;28;20073;-67
2024/03/11 07:51:15;;;;;;;20.10;9.30;;;;;;;;;;5079407;28;20174;-67
2024/03/11 07:53:41;;;;;;;22.70;9.02;;;;;;;;;;5079781;28;20028;-67
2024/03/11 07:56:09;;;;;;;20.23;8.82;;;;;;;;;;5091946;28;20067;-66
2024/03/11 07:58:36;;;;;;;23.10;9.40;;;;;;;;;;5084922;28;20039;-67
2024/03/11 08:01:02;;;;;;;23.67;10.02;;;;;;;;;;5100791;28;20020;-67
2024/03/11 08:03:29;;;;;;;22.23;9.30;;;;;;;;;;5095518;28;20073;-67
2024/03/11 08:05:58;;;;;;;17.20;8.27;;;;;;;;;;5096602;28;20135;-68
2024/03/11 08:08:25;;;;;;;21.17;9.82;;;;;;;;;;5079736;28;20152;-66
2024/03/11 08:10:52;;;;;;;21.60;7.95;;;;;;;;;;5083659;28;20024;-66
2024/03/11 08:13:18;;;;;;;21.83;8.85;;;;;;;;;;5099462;28;20039;-66
2024/03/11 08:15:45;;;;;;;17.40;10.55;;;;;;;;;;5087047;28;20543;-67
2024/03/11 08:18:13;;;;;;;19.45;10.25;;;;;;;;;;5067188;28;20171;-67
2024/03/11 08:20:39;;;;;;;25.40;9.57;;;;;;;;;;5083509;28;20089;-67
2024/03/11 08:23:06;;;;;;;17.98;8.70;;;;;;;;;;5070616;28;20492;-67
2024/03/11 08:25:32;;;;;;;22.92;9.48;;;;;;;;;;5084300;28;20031;-67
2024/03/11 08:27:58;;;;;;;24.25;9.55;;;;;;;;;;5080449;28;20548;-67
2024/03/11 08:30:28;;;;;;;19.65;8.85;;;;;;;;;;5095566;28;20145;-67
2024/03/11 08:32:56;;;;;;;29.65;10.23;;;;;;;;;;5100447;28;20368;-67
2024/03/11 08:35:23;;;;;;;21.38;8.85;;;;;;;;;;5092475;28;20504;-67
2024/03/11 08:37:50;;;;;;;26.40;10.48;;;;;;;;;;5076519;28;20052;-66
2024/03/11 08:40:17;;;;;;;15.20;8.73;;;;;;;;;;5095028;28;20031;-65
2024/03/11 08:42:50;;;;;;;17.35;9.73;;;;;;;;;;5076903;28;20526;-66
2024/03/11 08:45:22;;;;;;;26.48;10.43;;;;;;;;;;5097515;28;20024;-67
2024/03/11 08:47:48;;;;;;;23.15;8.82;;;;;;;;;;5091639;28;20468;-67
2024/03/11 08:50:17;;;;;;;21.08;9.50;;;;;;;;;;5098477;28;20016;-67
2024/03/11 08:52:45;;;;;;;22.30;9.45;;;;;;;;;;5085726;28;20036;-67
2024/03/11 08:55:13;;;;;;;26.83;10.93;;;;;;;;;;5092692;27;20498;-67
2024/03/11 08:57:40;;;;;;;22.40;9.50;;;;;;;;;;5075346;28;20035;-67
2024/03/11 09:00:09;;;;;;;21.15;10.45;;;;;;;;;;5098659;28;20142;-69
2024/03/11 09:02:36;;;;;;;24.58;10.00;;;;;;;;;;5061419;28;20169;-67
2024/03/11 09:05:03;;;;;;;25.33;10.52;;;;;;;;;;5065496;28;20028;-67
2024/03/11 09:07:30;;;;;;;22.38;10.85;;;;;;;;;;5092052;28;20024;-67
2024/03/11 09:09:57;;;;;;;21.45;9.77;;;;;;;;;;5078044;28;20016;-67
2024/03/11 09:12:23;;;;;;;21.70;10.77;;;;;;;;;;5100499;28;20204;-67
2024/03/11 09:14:52;;;;;;;24.13;9.63;;;;;;;;;;5097659;28;20027;-67
2024/03/11 09:17:18;;;;;;;26.52;11.40;;;;;;;;;;5083686;28;20031;-67
2024/03/11 09:19:44;;;;;;;28.98;10.15;;;;;;;;;;5086979;28;20334;-67
2024/03/11 09:22:13;;;;;;;19.17;9.73;;;;;;;;;;5093279;28;20039;-67
2024/03/11 09:24:41;;;;;;;24.65;10.35;;;;;;;;;;5094684;28;20477;-67
2024/03/11 09:27:09;;;;;;;23.17;9.88;;;;;;;;;;5089566;28;20084;-70
2024/03/11 09:29:37;;;;;;;21.73;9.55;;;;;;;;;;5099141;28;20020;-67
2024/03/11 09:32:04;;;;;;;19.23;9.85;;;;;;;;;;5094376;28;20122;-67
2024/03/11 09:34:30;;;;;;;17.80;9.80;;;;;;;;;;5097920;28;20035;-67
2024/03/11 09:36:56;;;;;;;39.47;13.30;;;;;;;;;;5103187;28;20048;-67
2024/03/11 09:39:22;;;;;;;32.72;11.57;;;;;;;;;;5102276;28;20055;-67
2024/03/11 09:41:49;;;;;;;29.05;11.30;;;;;;;;;;5102234;28;20020;-67
2024/03/11 09:44:17;;;;;;;26.15;10.40;;;;;;;;;;5096438;28;20020;-67
2024/03/11 09:46:45;;;;;;;34.50;11.48;;;;;;;;;;5094563;28;20510;-67
2024/03/11 09:49:14;;;;;;;17.85;8.20;;;;;;;;;;5089354;28;20020;-67
2024/03/11 09:51:41;;;;;;;35.92;11.50;;;;;;;;;;5091512;28;20024;-67
2024/03/11 09:54:13;;;;;;;18.83;11.07;;;;;;;;;;5085447;28;20027;-67
2024/03/11 09:56:40;;;;;;;22.17;10.50;;;;;;;;;;5091614;28;20473;-67
2024/03/11 09:59:09;;;;;;;20.80;10.23;;;;;;;;;;5091229;28;20024;-68
2024/03/11 10:01:37;;;;;;;20.02;10.77;;;;;;;;;;5095621;28;20043;-67
2024/03/11 10:04:05;;;;;;;27.70;11.00;;;;;;;;;;5087368;28;20458;-67
2024/03/11 10:06:33;;;;;;;26.60;11.57;;;;;;;;;;5093955;28;20016;-67
2024/03/11 10:08:59;;;;;;;24.40;11.05;;;;;;;;;;5099956;28;20031;-67
2024/03/11 10:11:28;;;;;;;23.90;9.80;;;;;;;;;;5088066;28;20111;-67
2024/03/11 10:13:57;;;;;;;31.48;10.82;;;;;;;;;;5082551;27;20153;-67
2024/03/11 10:16:27;;;;;;;32.45;11.82;;;;;;;;;;5097805;28;20096;-67
2024/03/11 10:19:12;;;;;;;27.83;9.68;;;;;;;;;;5095083;27;20109;-67
2024/03/11 10:21:42;;;;;;;22.45;10.55;;;;;;;;;;5093451;28;20024;-67
2024/03/11 10:24:14;;;;;;;19.45;9.80;;;;;;;;;;5088766;27;20035;-67
2024/03/11 10:26:41;;;;;;;24.67;10.40;;;;;;;;;;5091615;28;20537;-67
2024/03/11 10:29:16;;;;;;;20.45;10.43;;;;;;;;;;5101588;28;20024;-66
2024/03/11 10:31:45;;;;;;;18.77;10.48;;;;;;;;;;5083469;28;20024;-67
2024/03/11 10:34:21;;;;;;;21.35;10.02;;;;;;;;;;5093427;27;20088;-67
2024/03/11 10:36:47;;;;;;;21.45;10.57;;;;;;;;;;5088164;28;20918;-67
2024/03/11 10:41:50;;;;;;;25.73;10.80;;;;;;;;;;5100157;28;20034;-67
2024/03/11 10:44:19;;;;;;;27.17;10.82;;;;;;;;;;5075366;28;20016;-67
2024/03/11 10:46:46;;;;;;;27.15;10.10;;;;;;;;;;5097269;28;20059;-67
2024/03/11 10:49:15;;;;;;;24.30;10.48;;;;;;;;;;5079178;28;20525;-67
2024/03/11 10:51:48;;;;;;;24.42;11.48;;;;;;;;;;5084176;28;20031;-67
2024/03/11 10:54:23;;;;;;;33.83;11.93;;;;;;;;;;5071883;28;20035;-67
2024/03/11 10:56:56;;;;;;;28.27;11.02;;;;;;;;;;5092706;28;20465;-67
2024/03/11 10:59:33;;;;;;;27.85;12.57;;;;;;;;;;5096640;28;20111;-67
2024/03/11 11:02:00;;;;;;;18.20;9.10;;;;;;;;;;5093048;28;20107;-67
2024/03/11 11:04:29;;;;;;;27.15;10.93;;;;;;;;;;5088107;28;20028;-67
2024/03/11 11:06:58;;;;;;;20.48;9.93;;;;;;;;;;5094230;28;20038;-67
2024/03/11 11:09:27;;;;;;;22.90;9.85;;;;;;;;;;5095394;28;20058;-67
2024/03/11 11:11:54;;;;;;;21.00;9.50;;;;;;;;;;5098514;28;20401;-67
2024/03/11 11:14:23;;;;;;;24.63;10.15;;;;;;;;;;5070952;28;20035;-67
2024/03/11 11:16:51;;;;;;;25.02;12.35;;;;;;;;;;5092869;28;20023;-67
2024/03/11 11:19:32;;;;;;;22.75;9.48;;;;;;;;;;5089432;28;20436;-67
2024/03/11 11:21:59;;;;;;;20.58;9.60;;;;;;;;;;5087509;28;20390;-67
2024/03/11 11:24:32;;;;;;;18.55;8.65;;;;;;;;;;5084261;28;20554;-67
2024/03/11 11:26:59;;;;;;;30.23;9.70;;;;;;;;;;5089204;28;20523;-67
2024/03/11 11:29:27;;;;;;;23.58;10.13;;;;;;;;;;5081380;28;20028;-70
2024/03/11 11:32:06;;;;;;;31.33;10.05;;;;;;;;;;5096784;28;20052;-67
2024/03/11 11:34:44;;;;;;;27.88;9.27;;;;;;;;;;5097592;28;20385;-67
2024/03/11 11:37:23;;;;;;;20.77;10.43;;;;;;;;;;5069170;28;20094;-67
2024/03/11 11:39:54;;;;;;;21.55;9.35;;;;;;;;;;5074684;28;20032;-67
2024/03/11 11:42:40;;;;;;;18.05;8.73;;;;;;;;;;5083412;28;20028;-67
2024/03/11 11:45:13;;;;;;;23.92;10.18;;;;;;;;;;5072772;28;20029;-66
2024/03/11 11:47:40;;;;;;;22.55;9.75;;;;;;;;;;5076993;28;20104;-68
2024/03/11 11:50:26;;;;;;;21.60;10.55;;;;;;;;;;5076798;28;20055;-67
2024/03/11 11:53:02;;;;;;;22.67;8.68;;;;;;;;;;5066259;28;20042;-68
2024/03/11 11:55:34;;;;;;;18.27;9.82;;;;;;;;;;5074553;28;20021;-78
2024/03/11 11:58:10;;;;;;;24.25;10.30;;;;;;;;;;5077769;28;20054;-78
2024/03/11 12:00:46;;;;;;;23.85;9.85;;;;;;;;;;5076538;28;20032;-78
2024/03/11 12:03:31;;;;;;;20.27;9.02;;;;;;;;;;5084814;28;20262;-78
2024/03/11 12:05:57;;;;;;;;;;;;;;;;;;5077582;28;20460;-78
2024/03/11 12:08:24;;;;;;;20.38;8.40;;;;;;;;;;5074098;28;20365;-78
2024/03/11 12:11:07;;;;;;;24.83;10.43;;;;;;;;;;5081294;28;20510;-78
2024/03/11 12:13:33;;;;;;;20.88;9.05;;;;;;;;;;5078145;28;20025;-78
2024/03/11 12:16:09;;;;;;;27.08;10.82;;;;;;;;;;5076170;28;20476;-78
2024/03/11 12:18:35;;;;;;;27.10;8.55;;;;;;;;;;5076196;28;20444;-77
2024/03/11 12:21:06;;;;;;;23.60;10.45;;;;;;;;;;5074285;28;20027;-78
2024/03/11 12:23:34;;;;;;;22.63;9.70;;;;;;;;;;5081708;28;20485;-77
2024/03/11 12:26:00;;;;;;;18.65;9.43;;;;;;;;;;5078156;28;20029;-78
2024/03/11 12:28:27;;;;;;;29.58;12.15;;;;;;;;;;5083947;28;20034;-78
2024/03/11 12:30:53;;;;;;;19.75;10.50;;;;;;;;;;5076835;28;20095;-77
2024/03/11 12:33:21;;;;;;;27.83;10.82;;;;;;;;;;5081561;28;20024;-78
2024/03/11 12:35:50;;;;;;;16.63;9.13;;;;;;;;;;5077483;28;20082;-78
2024/03/11 12:38:17;;;;;;;20.20;9.27;;;;;;;;;;5107103;27;20385;-78
2024/03/11 12:40:44;;;;;;;20.02;8.98;;;;;;;;;;5095131;28;20040;-78
2024/03/11 12:43:20;;;;;;;16.08;9.65;;;;;;;;;;5107674;28;20318;-78
2024/03/11 12:45:53;;;;;;;26.13;10.25;;;;;;;;;;5106826;28;20039;-78
2024/03/11 12:48:22;;;;;;;18.35;8.30;;;;;;;;;;5091439;28;20023;-78
2024/03/11 12:50:48;;;;;;;18.20;8.73;;;;;;;;;;5086704;28;20084;-78
2024/03/11 12:53:15;;;;;;;20.40;9.82;;;;;;;;;;5089662;28;20023;-78
2024/03/11 12:55:42;;;;;;;15.63;9.80;;;;;;;;;;5083391;28;20032;-78
2024/03/11 12:58:12;;;;;;;20.45;9.30;;;;;;;;;;5084113;28;20028;-78
2024/03/11 13:00:45;;;;;;;22.90;9.23;;;;;;;;;;5099738;28;20028;-78
2024/03/11 13:03:12;;;;;;;16.65;8.55;;;;;;;;;;5082301;28;20511;-79
2024/03/11 13:05:40;;;;;;;13.93;7.35;;;;;;;;;;5104018;28;20489;-78
2024/03/11 13:08:09;;;;;;;21.75;10.00;;;;;;;;;;5098318;28;20103;-78
2024/03/11 13:10:35;;;;;;;19.13;10.18;;;;;;;;;;5097987;28;20031;-78
2024/03/11 13:13:19;;;;;;;26.38;9.70;;;;;;;;;;5095713;28;20023;-78
2024/03/11 13:15:50;;;;;;;18.63;8.88;;;;;;;;;;5093542;28;20032;-78
2024/03/11 13:18:18;;;;;;;16.23;10.07;;;;;;;;;;5093971;28;20039;-77
2024/03/11 13:20:44;;;;;;;23.02;11.07;;;;;;;;;;5081684;28;20039;-77
2024/03/11 13:23:11;;;;;;;22.00;9.65;;;;;;;;;;5103068;28;20107;-77
2024/03/11 13:25:39;;;;;;;22.45;9.80;;;;;;;;;;5099733;28;20495;-77
2024/03/11 13:28:07;;;;;;;17.42;8.75;;;;;;;;;;5098285;28;20469;-77
2024/03/11 13:30:34;;;;;;;25.95;11.77;;;;;;;;;;5092048;28;20024;-77
2024/03/11 13:33:01;;;;;;;17.10;9.02;;;;;;;;;;5104073;28;20024;-77
2024/03/11 13:35:27;;;;;;;19.65;10.32;;;;;;;;;;5101817;28;20054;-78
2024/03/11 13:37:53;;;;;;;22.98;10.52;;;;;;;;;;5104634;28;20054;-78
2024/03/11 13:40:20;;;;;;;24.38;10.18;;;;;;;;;;5096352;28;20031;-77
2024/03/11 13:42:47;;;;;;;20.95;9.88;;;;;;;;;;5087972;28;20433;-77
2024/03/11 13:45:13;;;;;;;17.70;9.60;;;;;;;;;;5115516;28;20500;-77
2024/03/11 13:47:39;;;;;;;20.13;9.13;;;;;;;;;;5085653;28;20049;-78
2024/03/11 13:50:16;;;;;;;18.15;9.95;;;;;;;;;;5076848;28;20461;-77
2024/03/11 13:52:42;;;;;;;21.17;8.68;;;;;;;;;;5100912;28;20031;-78
2024/03/11 13:55:12;;;;;;;17.42;8.75;;;;;;;;;;5092822;28;20031;-78
2024/03/11 13:57:39;;;;;;;16.33;10.05;;;;;;;;;;5100295;27;20072;-77
2024/03/11 14:00:09;;;;;;;19.13;10.18;;;;;;;;;;5098319;28;20024;-78
2024/03/11 14:02:36;;;;;;;17.00;9.50;;;;;;;;;;5107929;28;20039;-78
2024/03/11 14:05:03;;;;;;;29.42;11.90;;;;;;;;;;5088136;28;20201;-78
2024/03/11 14:07:29;;;;;;;35.08;12.23;;;;;;;;;;5085363;28;20359;-78
2024/03/11 14:09:56;;;;;;;21.67;9.77;;;;;;;;;;5104066;28;20023;-77
2024/03/11 14:12:22;;;;;;;26.35;9.43;;;;;;;;;;5086882;28;20358;-77
2024/03/11 14:14:48;;;;;;;23.85;8.90;;;;;;;;;;5096740;28;20028;-78
2024/03/11 14:17:14;;;;;;;20.27;9.68;;;;;;;;;;5106679;28;20036;-77
2024/03/11 14:19:41;;;;;;;22.85;10.05;;;;;;;;;;5105819;28;20031;-78
2024/03/11 14:22:08;;;;;;;22.10;9.30;;;;;;;;;;5095157;27;20497;-78
2024/03/11 14:24:34;;;;;;;19.88;9.43;;;;;;;;;;5084649;28;20414;-78
2024/03/11 14:27:00;;;;;;;19.35;9.68;;;;;;;;;;5106710;28;20500;-78
2024/03/11 14:29:26;;;;;;;19.67;9.32;;;;;;;;;;5089219;28;20036;-77
2024/03/11 14:31:53;;;;;;;24.20;9.95;;;;;;;;;;5084395;28;21219;-78
2024/03/11 14:34:20;;;;;;;22.55;9.68;;;;;;;;;;5091118;28;20084;-77